Time;durP1;ratioP1;P1;durP2;ratioP2;P2;SDS_P1;SDS_P2;PMS_P1;PMS_P2;Temp;Humidity;BMP_temperature;BMP_pressure;BME280_temperature;BME280_humidity;BME280_pressure;Samples;Min_cycle;Max_cycle;Signal;HPM_P1;HPM_P2
2021/11/02 00:00:35;;;;;;;7.67;3.73;;;9.30;97.30;;;;;;5052117;28;20425;-78
2021/11/02 00:03:01;;;;;;;4.17;3.03;;;9.30;97.30;;;;;;5052030;28;20828;-78
2021/11/02 00:05:27;;;;;;;10.57;3.70;;;9.30;97.30;;;;;;5051956;28;20526;-77
2021/11/02 00:07:53;;;;;;;3.90;2.70;;;9.30;97.30;;;;;;5051517;28;20549;-78
2021/11/02 00:10:19;;;;;;;3.77;3.20;;;9.30;97.30;;;;;;5053937;28;20459;-78
2021/11/02 00:12:45;;;;;;;4.00;2.73;;;9.30;97.30;;;;;;5051871;28;20259;-77
2021/11/02 00:15:11;;;;;;;5.77;3.20;;;9.20;97.30;;;;;;5051730;28;20529;-78
2021/11/02 00:17:39;;;;;;;9.07;3.70;;;9.20;97.30;;;;;;5051748;28;20176;-77
2021/11/02 00:20:09;;;;;;;7.20;3.10;;;9.20;97.30;;;;;;5051284;28;20426;-77
2021/11/02 00:22:36;;;;;;;11.33;2.80;;;9.20;97.30;;;;;;5051690;28;20412;-77
2021/11/02 00:25:07;;;;;;;9.10;3.33;;;9.30;97.30;;;;;;5068100;28;20472;-77
2021/11/02 00:27:37;;;;;;;2.87;2.63;;;9.30;97.30;;;;;;5051689;28;20705;-78
2021/11/02 00:30:07;;;;;;;5.40;3.00;;;9.30;97.30;;;;;;5051377;28;20415;-77
2021/11/02 00:32:32;;;;;;;4.27;2.67;;;9.30;97.30;;;;;;5051096;28;20508;-78
2021/11/02 00:34:59;;;;;;;5.73;2.83;;;9.30;97.30;;;;;;5052773;28;20505;-77
2021/11/02 00:37:25;;;;;;;3.37;2.70;;;9.30;97.30;;;;;;5055327;28;20194;-78
2021/11/02 00:39:53;;;;;;;7.17;3.57;;;9.30;97.30;;;;;;5057393;28;20415;-78
2021/11/02 00:42:18;;;;;;;7.87;3.60;;;9.30;97.30;;;;;;5058439;28;20411;-79
2021/11/02 00:44:45;;;;;;;4.13;2.70;;;9.30;97.30;;;;;;5057162;28;20539;-78
2021/11/02 00:47:21;;;;;;;4.07;2.83;;;9.30;97.30;;;;;;5057319;28;20539;-79
2021/11/02 00:49:47;;;;;;;6.47;4.13;;;9.30;97.30;;;;;;5057738;28;20414;-78
2021/11/02 00:52:12;;;;;;;7.10;3.40;;;9.30;97.30;;;;;;5057160;28;20448;-78
2021/11/02 00:54:38;;;;;;;6.17;2.50;;;9.30;97.30;;;;;;5073433;28;20678;-78
2021/11/02 00:57:04;;;;;;;6.37;3.40;;;9.30;97.30;;;;;;5057438;28;20588;-78
2021/11/02 00:59:30;;;;;;;5.80;2.70;;;9.30;97.30;;;;;;5057149;28;20397;-78
2021/11/02 01:01:55;;;;;;;4.90;3.30;;;9.30;97.30;;;;;;5058354;28;20171;-78
2021/11/02 01:04:21;;;;;;;8.50;3.60;;;9.30;97.30;;;;;;5057111;28;20582;-79
2021/11/02 01:06:47;;;;;;;6.20;2.50;;;9.30;97.30;;;;;;5057295;28;20329;-78
2021/11/02 01:09:12;;;;;;;5.90;2.90;;;9.30;97.30;;;;;;5058044;28;20583;-78
2021/11/02 01:11:38;;;;;;;4.87;2.90;;;9.20;97.30;;;;;;5051732;28;20224;-77
2021/11/02 01:14:04;;;;;;;4.57;3.20;;;9.20;97.30;;;;;;5052300;28;20634;-77
2021/11/02 01:16:30;;;;;;;8.67;3.47;;;9.20;97.30;;;;;;5050629;28;20663;-77
2021/11/02 01:18:56;;;;;;;3.40;2.50;;;9.20;97.30;;;;;;5050614;28;20524;-78
2021/11/02 01:21:22;;;;;;;6.00;2.97;;;9.20;97.30;;;;;;5051165;28;20422;-77
2021/11/02 01:23:48;;;;;;;5.03;3.23;;;9.20;97.30;;;;;;5051953;28;20238;-77
2021/11/02 01:26:14;;;;;;;8.57;3.03;;;9.20;97.30;;;;;;5051946;28;20427;-77
2021/11/02 01:28:40;;;;;;;7.00;3.10;;;9.20;97.30;;;;;;5050553;28;20186;-77
2021/11/02 01:31:06;;;;;;;4.83;2.90;;;9.10;97.30;;;;;;5050620;28;20418;-77
2021/11/02 01:33:32;;;;;;;4.70;2.97;;;9.10;97.30;;;;;;5051496;28;20478;-77
2021/11/02 01:35:58;;;;;;;9.47;3.00;;;9.10;97.30;;;;;;5050686;28;20207;-77
2021/11/02 01:38:23;;;;;;;8.40;2.70;;;9.00;97.30;;;;;;5050923;28;20187;-77
2021/11/02 01:40:54;;;;;;;5.57;2.60;;;9.00;97.30;;;;;;5051698;28;20171;-77
2021/11/02 01:43:21;;;;;;;10.43;2.70;;;9.00;97.30;;;;;;5051603;28;20197;-77
2021/11/02 01:45:49;;;;;;;15.53;2.53;;;9.00;97.30;;;;;;5050471;28;20473;-77
2021/11/02 01:48:18;;;;;;;4.60;3.30;;;9.00;97.30;;;;;;5050206;28;20410;-77
2021/11/02 01:50:45;;;;;;;5.07;2.70;;;8.90;97.30;;;;;;5050433;28;20472;-77
2021/11/02 01:53:11;;;;;;;6.40;2.97;;;8.90;97.30;;;;;;5050171;28;21005;-77
2021/11/02 01:55:37;;;;;;;6.80;3.33;;;8.90;97.30;;;;;;5050705;28;20434;-77
2021/11/02 01:58:03;;;;;;;7.20;3.20;;;8.80;97.30;;;;;;5050142;28;20955;-76
2021/11/02 02:00:29;;;;;;;6.30;3.50;;;8.80;97.30;;;;;;5066654;28;20445;-76
2021/11/02 02:02:58;;;;;;;5.10;3.23;;;8.80;97.30;;;;;;5066297;28;20180;-77
2021/11/02 02:05:26;;;;;;;7.30;3.17;;;8.90;97.30;;;;;;5050880;28;20500;-77
2021/11/02 02:08:01;;;;;;;6.43;3.30;;;8.90;97.30;;;;;;5050061;28;20414;-76
2021/11/02 02:10:35;;;;;;;6.13;3.00;;;8.90;97.30;;;;;;5049958;28;20600;-77
2021/11/02 02:13:05;;;;;;;8.53;2.63;;;8.90;97.30;;;;;;5050230;28;20418;-76
2021/11/02 02:15:31;;;;;;;10.13;3.53;;;8.80;97.30;;;;;;5049791;28;20797;-76
2021/11/02 02:18:16;;;;;;;5.73;2.70;;;8.80;97.30;;;;;;5049803;28;20842;-76
2021/11/02 02:21:03;;;;;;;3.60;2.70;;;8.80;97.30;;;;;;5050876;28;20161;-75
2021/11/02 02:23:35;;;;;;;4.50;2.50;;;8.80;97.30;;;;;;5051310;28;20496;-74
2021/11/02 02:26:31;;;;;;;3.97;2.70;;;8.70;97.30;;;;;;5049384;28;20462;-75
2021/11/02 02:29:00;;;;;;;5.87;3.20;;;8.70;97.30;;;;;;5066449;28;20398;-74
2021/11/02 02:31:30;;;;;;;4.57;3.17;;;8.70;97.30;;;;;;5049386;28;20422;-75
2021/11/02 02:33:56;;;;;;;8.90;3.30;;;8.70;97.30;;;;;;5065750;28;20473;-75
2021/11/02 02:36:22;;;;;;;4.57;3.03;;;8.70;97.30;;;;;;5049601;28;20431;-74
2021/11/02 02:38:50;;;;;;;4.33;2.57;;;8.60;97.30;;;;;;5049482;28;20410;-75
2021/11/02 02:41:21;;;;;;;5.40;2.90;;;8.60;97.30;;;;;;5066390;28;20454;-75
2021/11/02 02:43:48;;;;;;;5.53;3.10;;;8.60;97.30;;;;;;5049313;28;20430;-75
2021/11/02 02:46:15;;;;;;;7.00;2.97;;;8.60;97.30;;;;;;5049373;28;20484;-75
2021/11/02 02:48:44;;;;;;;3.57;2.80;;;8.60;97.30;;;;;;5050730;28;20402;-74
2021/11/02 02:51:10;;;;;;;6.23;3.03;;;8.60;97.30;;;;;;5048967;28;20904;-75
2021/11/02 02:53:40;;;;;;;3.80;2.63;;;8.60;97.30;;;;;;5049564;28;20429;-76
2021/11/02 02:56:08;;;;;;;4.93;2.87;;;8.60;97.30;;;;;;5050527;28;20500;-76
2021/11/02 02:58:36;;;;;;;7.50;2.83;;;8.60;97.30;;;;;;5049605;28;20464;-77
2021/11/02 03:01:06;;;;;;;6.30;3.37;;;8.60;97.30;;;;;;5049010;28;20489;-76
2021/11/02 03:03:33;;;;;;;6.37;3.03;;;8.50;97.30;;;;;;5050521;28;20406;-76
2021/11/02 03:06:01;;;;;;;3.43;2.83;;;8.50;97.30;;;;;;5050678;28;20462;-75
2021/11/02 03:08:28;;;;;;;6.10;3.30;;;8.50;97.30;;;;;;5049007;28;20417;-77
2021/11/02 03:10:55;;;;;;;7.20;3.37;;;8.50;97.30;;;;;;5048908;28;20422;-76
2021/11/02 03:13:24;;;;;;;12.23;3.07;;;8.50;97.30;;;;;;5051408;28;20936;-76
2021/11/02 03:52:01;;;;;;;6.80;3.17;;;8.40;97.30;;;;;;5003782;28;20913;-75
2021/11/02 03:54:38;;;;;;;4.13;2.63;;;8.40;97.30;;;;;;5033539;28;20551;-73
2021/11/02 03:57:16;;;;;;;5.17;3.13;;;8.40;97.30;;;;;;5033797;28;20427;-74
2021/11/02 04:25:01;;;;;;;8.93;3.37;;;8.50;97.30;;;;;;5033013;28;20457;-74
2021/11/02 04:30:32;;;;;;;6.03;3.23;;;8.50;97.30;;;;;;5054498;28;20405;-75
2021/11/02 05:49:22;;;;;;;8.17;3.93;;;8.10;97.30;;;;;;5050962;28;20756;-75
2021/11/02 06:04:54;;;;;;;5.93;3.70;;;8.00;97.30;;;;;;5051077;28;20214;-75
2021/11/02 06:07:42;;;;;;;9.63;3.40;;;8.00;97.30;;;;;;5066024;28;20410;-75
2021/11/02 06:29:27;;;;;;;4.63;3.47;;;8.00;97.30;;;;;;5051291;28;20451;-75
2021/11/02 06:32:06;;;;;;;7.70;4.13;;;8.10;97.30;;;;;;5049597;28;20781;-75
2021/11/02 06:40:10;;;;;;;6.20;3.90;;;8.10;97.30;;;;;;5051546;28;20442;-76
2021/11/02 06:42:57;;;;;;;10.43;4.17;;;8.10;97.30;;;;;;5049539;28;20426;-75
2021/11/02 06:53:57;;;;;;;6.30;3.87;;;8.20;97.30;;;;;;5055244;28;20426;-75
2021/11/02 07:18:48;;;;;;;18.67;6.83;;;8.50;97.30;;;;;;5054392;28;21117;-75
2021/11/02 07:21:25;;;;;;;17.67;8.10;;;8.50;97.30;;;;;;5054094;28;20415;-75
2021/11/02 07:24:00;;;;;;;12.57;6.63;;;8.60;97.30;;;;;;5052415;28;20436;-75
2021/11/02 07:26:42;;;;;;;9.77;5.70;;;8.60;97.30;;;;;;5052867;28;20441;-75
2021/11/02 08:45:07;;;;;;;5.63;3.43;;;10.00;97.30;;;;;;5051700;28;20465;-75
2021/11/02 08:47:37;;;;;;;5.10;3.17;;;10.00;97.30;;;;;;5050403;28;20931;-75
2021/11/02 08:50:06;;;;;;;5.17;3.20;;;10.10;97.30;;;;;;5050134;28;20924;-75
2021/11/02 08:52:34;;;;;;;8.90;3.57;;;10.10;97.30;;;;;;5049973;28;20410;-75
2021/11/02 08:55:00;;;;;;;9.10;3.70;;;10.20;97.30;;;;;;5051545;28;20440;-75
2021/11/02 08:57:27;;;;;;;4.23;3.30;;;10.40;97.30;;;;;;5066662;28;20421;-75
2021/11/02 08:59:54;;;;;;;5.10;3.23;;;10.50;97.30;;;;;;5049747;28;20418;-76
2021/11/02 09:02:27;;;;;;;5.97;3.23;;;10.50;97.30;;;;;;5049956;28;20422;-75
2021/11/02 09:05:08;;;;;;;5.80;3.23;;;10.50;97.30;;;;;;5049724;28;20501;-74
2021/11/02 09:07:38;;;;;;;4.53;3.20;;;10.60;97.30;;;;;;5050236;28;20438;-76
2021/11/02 09:10:10;;;;;;;3.50;3.13;;;10.70;97.30;;;;;;5049304;28;20468;-74
2021/11/02 09:12:40;;;;;;;4.10;2.93;;;10.90;97.30;;;;;;5049599;28;20767;-75
2021/11/02 09:15:07;;;;;;;5.83;2.90;;;11.00;97.30;;;;;;5049698;28;20952;-75
2021/11/02 09:17:33;;;;;;;3.23;2.50;;;11.10;97.30;;;;;;5050716;28;20414;-76
2021/11/02 09:20:02;;;;;;;3.87;2.97;;;11.10;97.30;;;;;;5049832;28;20932;-75
2021/11/02 09:22:32;;;;;;;7.87;3.13;;;11.20;97.30;;;;;;5050842;28;20414;-75
2021/11/02 09:24:59;;;;;;;7.80;2.70;;;11.30;97.30;;;;;;5049321;28;20461;-76
2021/11/02 09:27:25;;;;;;;3.10;2.30;;;11.40;97.30;;;;;;5049394;28;20418;-76
2021/11/02 09:29:51;;;;;;;5.90;2.60;;;11.40;97.30;;;;;;5049449;28;20924;-76
2021/11/02 09:32:17;;;;;;;4.85;2.70;;;11.50;97.30;;;;;;5013317;28;1032679;-75
2021/11/02 09:34:43;;;;;;;6.50;2.70;;;11.60;97.30;;;;;;5049988;28;20238;-76
2021/11/02 09:37:25;;;;;;;4.57;2.60;;;11.60;97.30;;;;;;5050145;28;20281;-75
2021/11/02 09:39:53;;;;;;;6.93;2.63;;;11.80;97.30;;;;;;5050078;28;20191;-76
2021/11/02 09:42:42;;;;;;;10.87;3.00;;;12.00;97.30;;;;;;5050056;28;20446;-75
2021/11/02 09:45:23;;;;;;;5.33;2.50;;;12.20;97.30;;;;;;5050368;28;20588;-77
2021/11/02 09:48:07;;;;;;;4.80;2.43;;;12.20;97.30;;;;;;5051260;28;20976;-76
2021/11/02 09:50:45;;;;;;;4.43;2.27;;;12.30;97.30;;;;;;5050251;28;20422;-76
2021/11/02 09:53:10;;;;;;;2.87;2.00;;;12.40;97.30;;;;;;5052363;28;20410;-76
2021/11/02 09:56:00;;;;;;;7.77;2.30;;;12.40;97.30;;;;;;5050292;28;20434;-76
2021/11/02 09:58:56;;;;;;;14.33;2.90;;;12.40;97.30;;;;;;5050546;28;20296;-75
2021/11/02 10:02:03;;;;;;;3.20;2.00;;;12.30;97.30;;;;;;5050224;28;20436;-76
2021/11/02 10:04:49;;;;;;;3.10;2.50;;;12.30;97.30;;;;;;5051693;28;20856;-76
2021/11/02 10:07:21;;;;;;;5.50;2.10;;;12.20;97.30;;;;;;5050332;28;20811;-76
2021/11/02 10:10:17;;;;;;;5.53;2.97;;;12.30;97.30;;;;;;5051103;28;20501;-77
2021/11/02 10:13:06;;;;;;;2.73;2.30;;;12.20;97.30;;;;;;5051482;28;20774;-77
2021/11/02 10:15:55;;;;;;;2.60;2.40;;;12.30;97.30;;;;;;5050227;28;20802;-77
2021/11/02 10:18:45;;;;;;;5.00;2.43;;;12.30;97.30;;;;;;5050195;28;20767;-77
2021/11/02 10:21:24;;;;;;;4.33;2.77;;;12.50;97.30;;;;;;5050104;28;20421;-76
2021/11/02 10:23:59;;;;;;;9.77;2.17;;;12.70;97.30;;;;;;5053408;28;20414;-76
2021/11/02 10:26:49;;;;;;;4.87;2.27;;;12.70;97.30;;;;;;5053685;28;20469;-77
2021/11/02 10:29:49;;;;;;;5.70;2.43;;;12.70;97.30;;;;;;5053886;28;20410;-76
2021/11/02 10:32:23;;;;;;;3.00;2.30;;;12.90;97.30;;;;;;5045307;28;20971;-75
2021/11/02 10:35:10;;;;;;;6.47;2.57;;;13.00;97.30;;;;;;5053393;28;20444;-75
2021/11/02 10:37:47;;;;;;;3.43;2.00;;;13.20;97.30;;;;;;5054097;28;20414;-76
2021/11/02 10:40:14;;;;;;;2.30;2.07;;;13.20;97.30;;;;;;5053562;28;20962;-77
2021/11/02 10:43:01;;;;;;;4.67;1.90;;;13.20;97.30;;;;;;5053706;28;20442;-77
2021/11/02 10:45:29;;;;;;;5.10;2.07;;;13.40;97.30;;;;;;5053531;28;20846;-76
2021/11/02 10:48:10;;;;;;;3.90;1.90;;;13.60;97.00;;;;;;5053297;28;20413;-76
2021/11/02 10:50:38;;;;;;;3.67;1.97;;;13.70;96.20;;;;;;5053543;28;20410;-76
2021/11/02 10:53:08;;;;;;;3.00;1.43;;;13.70;95.80;;;;;;5054690;28;20483;-76
2021/11/02 10:56:07;;;;;;;5.23;1.53;;;13.80;95.00;;;;;;5054990;28;20438;-75
2021/11/02 10:58:52;;;;;;;1.60;1.50;;;13.90;94.90;;;;;;5053545;28;20856;-76
2021/11/02 11:01:18;;;;;;;4.67;1.53;;;13.90;94.10;;;;;;5070054;28;20421;-76
2021/11/02 11:03:48;;;;;;;5.70;2.07;;;13.80;94.10;;;;;;5053241;28;20422;-77
2021/11/02 11:06:14;;;;;;;3.70;1.70;;;13.80;93.90;;;;;;5052897;28;20207;-76
2021/11/02 11:08:46;;;;;;;2.70;1.87;;;14.00;94.60;;;;;;5053308;28;20414;-77
2021/11/02 11:11:14;;;;;;;9.30;2.00;;;14.10;93.30;;;;;;5068808;28;20414;-75
2021/11/02 11:13:43;;;;;;;5.30;1.60;;;14.00;92.90;;;;;;5054335;28;20406;-78
2021/11/02 11:16:10;;;;;;;1.70;1.30;;;14.10;93.80;;;;;;5053183;28;20438;-76
2021/11/02 11:18:44;;;;;;;3.30;1.60;;;14.30;93.80;;;;;;5054565;28;20888;-75
2021/11/02 11:21:11;;;;;;;6.07;1.70;;;14.40;92.90;;;;;;5053144;28;20443;-75
2021/11/02 11:23:42;;;;;;;9.10;3.07;;;14.50;93.10;;;;;;5054149;28;20410;-76
2021/11/02 11:26:09;;;;;;;3.90;1.90;;;14.50;93.20;;;;;;5052611;28;20460;-76
2021/11/02 11:28:39;;;;;;;3.63;1.87;;;14.30;92.30;;;;;;5054231;28;20793;-76
2021/11/02 11:31:06;;;;;;;7.17;2.47;;;14.20;93.10;;;;;;5052822;28;20475;-77
2021/11/02 11:33:33;;;;;;;1.67;1.47;;;13.90;92.30;;;;;;5052296;28;20532;-76
2021/11/02 11:36:04;;;;;;;8.30;2.00;;;13.80;93.30;;;;;;5052403;28;20469;-76
2021/11/02 11:38:37;;;;;;;2.70;1.63;;;13.90;93.90;;;;;;5052474;28;20403;-76
2021/11/02 11:41:05;;;;;;;1.97;1.57;;;13.90;93.60;;;;;;5049765;28;20419;-76
2021/11/02 11:43:33;;;;;;;2.53;1.50;;;14.10;93.70;;;;;;5033887;28;20443;-76
2021/11/02 11:46:04;;;;;;;3.67;1.60;;;14.10;93.20;;;;;;5033643;28;20455;-76
2021/11/02 11:48:31;;;;;;;3.90;1.60;;;14.10;93.30;;;;;;5033848;28;20407;-75
2021/11/02 11:51:00;;;;;;;5.37;1.70;;;13.90;93.40;;;;;;5033731;28;20404;-77
2021/11/02 11:53:28;;;;;;;9.70;1.97;;;13.80;93.80;;;;;;5032104;28;20422;-76
2021/11/02 11:56:10;;;;;;;1.90;1.70;;;13.80;93.70;;;;;;5032583;28;20447;-75
2021/11/02 11:58:50;;;;;;;2.90;1.50;;;13.50;94.10;;;;;;5032670;28;20984;-76
2021/11/02 12:01:40;;;;;;;4.27;1.57;;;13.40;93.40;;;;;;5033592;28;20400;-76
2021/11/02 12:04:20;;;;;;;2.70;1.33;;;13.20;93.30;;;;;;5032174;28;20415;-76
2021/11/02 12:06:49;;;;;;;3.60;1.90;;;13.00;94.40;;;;;;5032355;28;20407;-76
2021/11/02 12:09:20;;;;;;;1.63;1.50;;;13.00;94.20;;;;;;5032369;28;20423;-76
2021/11/02 12:11:48;;;;;;;3.67;2.13;;;12.90;94.30;;;;;;5048981;28;20849;-75
2021/11/02 12:14:21;;;;;;;3.07;2.00;;;12.90;94.60;;;;;;5032924;28;20450;-76
2021/11/02 12:16:47;;;;;;;2.00;1.80;;;13.00;95.00;;;;;;5031859;28;20439;-76
2021/11/02 12:19:16;;;;;;;3.27;1.60;;;13.30;94.40;;;;;;5031639;28;20489;-76
2021/11/02 12:21:44;;;;;;;4.30;1.70;;;13.80;94.10;;;;;;5032513;28;20415;-76
2021/11/02 12:24:13;;;;;;;2.03;1.50;;;14.00;92.50;;;;;;5032962;28;20418;-77
2021/11/02 12:26:47;;;;;;;2.87;1.57;;;13.80;92.30;;;;;;5033292;28;20763;-77
2021/11/02 12:29:24;;;;;;;2.93;1.67;;;13.50;92.70;;;;;;5031906;28;20464;-75
2021/11/02 12:32:01;;;;;;;3.50;2.10;;;13.20;93.80;;;;;;5031727;28;20414;-77
2021/11/02 12:34:40;;;;;;;4.90;1.70;;;13.00;94.50;;;;;;5033140;28;20435;-76
2021/11/02 12:37:08;;;;;;;5.20;2.07;;;13.00;94.90;;;;;;5031564;28;20415;-77
2021/11/02 12:39:34;;;;;;;3.50;1.70;;;12.90;95.50;;;;;;5031822;28;20431;-76
2021/11/02 12:42:02;;;;;;;7.47;1.53;;;13.00;95.70;;;;;;5048163;28;20485;-76
2021/11/02 12:44:30;;;;;;;6.07;1.70;;;13.00;95.00;;;;;;5030840;28;20540;-76
2021/11/02 12:46:57;;;;;;;2.37;1.67;;;13.20;94.40;;;;;;5031092;28;20414;-76
2021/11/02 12:49:40;;;;;;;2.53;1.50;;;13.10;94.20;;;;;;5032303;28;20410;-76
2021/11/02 12:52:09;;;;;;;1.87;1.80;;;12.90;93.60;;;;;;5032737;28;20781;-76
2021/11/02 12:54:35;;;;;;;2.13;1.60;;;12.80;94.30;;;;;;5031221;28;20446;-76
2021/11/02 12:57:12;;;;;;;2.17;1.30;;;12.70;94.20;;;;;;5032599;28;20407;-76
2021/11/02 12:59:46;;;;;;;6.37;2.13;;;12.80;94.40;;;;;;5048100;28;20427;-76
2021/11/02 13:02:20;;;;;;;3.50;1.67;;;13.00;94.10;;;;;;5047432;28;20410;-76
2021/11/02 13:04:54;;;;;;;3.67;1.77;;;13.10;93.80;;;;;;5030939;28;20469;-75
2021/11/02 13:07:20;;;;;;;2.43;1.50;;;13.10;93.40;;;;;;5031007;28;20932;-76
2021/11/02 13:09:51;;;;;;;2.90;1.30;;;13.00;93.70;;;;;;5031251;28;20971;-76
2021/11/02 13:12:23;;;;;;;5.23;1.50;;;13.00;94.30;;;;;;5032254;28;20431;-76
2021/11/02 13:14:49;;;;;;;1.70;1.60;;;12.90;94.30;;;;;;5031004;28;20439;-76
2021/11/02 13:17:19;;;;;;;3.40;1.57;;;12.70;94.90;;;;;;5032216;28;20499;-75
2021/11/02 13:19:49;;;;;;;2.77;1.77;;;12.70;95.30;;;;;;5038699;28;20517;-77
2021/11/02 13:22:20;;;;;;;1.93;1.53;;;12.70;95.80;;;;;;5050883;28;20460;-76
2021/11/02 13:25:00;;;;;;;2.10;1.60;;;12.60;95.70;;;;;;5050085;28;20462;-77
2021/11/02 13:27:43;;;;;;;2.90;1.90;;;12.50;96.10;;;;;;5050359;28;20418;-76
2021/11/02 13:30:27;;;;;;;8.20;2.33;;;12.50;96.30;;;;;;5051614;28;20399;-76
2021/11/02 13:33:02;;;;;;;4.80;2.30;;;12.40;96.30;;;;;;5050346;28;20458;-76
2021/11/02 13:35:48;;;;;;;4.70;2.20;;;12.40;96.60;;;;;;5050257;28;20501;-76
2021/11/02 13:38:38;;;;;;;6.40;2.70;;;12.30;96.90;;;;;;5050592;28;20501;-76
2021/11/02 13:41:17;;;;;;;9.67;4.00;;;12.30;97.30;;;;;;5050106;28;20418;-76
2021/11/02 13:43:45;;;;;;;8.63;2.80;;;12.30;97.30;;;;;;5050184;28;20414;-78
2021/11/02 13:46:13;;;;;;;4.50;2.47;;;12.20;97.30;;;;;;5049853;28;20820;-77
2021/11/02 13:48:40;;;;;;;2.47;1.60;;;12.20;97.30;;;;;;5051583;28;20414;-77
2021/11/02 13:51:08;;;;;;;1.77;1.60;;;12.20;97.30;;;;;;5051447;28;20415;-77
2021/11/02 13:53:34;;;;;;;20.73;8.30;;;12.10;96.90;;;;;;5050390;28;20407;-78
2021/11/02 13:56:06;;;;;;;3.87;2.70;;;12.10;97.30;;;;;;5049952;28;20469;-77
2021/11/02 13:58:33;;;;;;;12.40;4.60;;;12.00;97.30;;;;;;5050389;28;20422;-77
2021/11/02 14:00:59;;;;;;;10.83;4.40;;;11.90;97.30;;;;;;5049792;28;20880;-77
2021/11/02 14:03:30;;;;;;;14.40;5.77;;;11.90;97.30;;;;;;5064325;28;20414;-77
2021/11/02 14:05:58;;;;;;;17.30;5.90;;;11.80;97.30;;;;;;5049916;28;20203;-77
2021/11/02 14:08:25;;;;;;;7.50;3.00;;;11.80;97.30;;;;;;5067020;28;20418;-78
2021/11/02 14:10:53;;;;;;;13.27;3.80;;;11.70;97.30;;;;;;5050408;28;20410;-79
2021/11/02 14:13:43;;;;;;;6.00;2.13;;;11.60;97.30;;;;;;5050051;28;20438;-78
2021/11/02 14:16:10;;;;;;;3.87;1.90;;;11.40;97.30;;;;;;5049840;28;20442;-77
2021/11/02 14:18:37;;;;;;;3.73;2.13;;;11.40;97.30;;;;;;5066568;28;20508;-78
2021/11/02 14:21:02;;;;;;;10.20;2.50;;;11.40;97.30;;;;;;5049671;28;20415;-77
2021/11/02 14:23:31;;;;;;;3.90;2.20;;;11.40;97.30;;;;;;5050803;28;20433;-77
2021/11/02 14:26:21;;;;;;;6.73;2.57;;;11.40;97.30;;;;;;5050779;28;20415;-77
2021/11/02 14:28:49;;;;;;;5.63;3.17;;;11.40;97.30;;;;;;5049624;28;20814;-77
2021/11/02 14:31:45;;;;;;;4.07;2.70;;;11.40;97.30;;;;;;5049719;28;20488;-77
2021/11/02 14:34:12;;;;;;;7.83;3.53;;;11.40;97.30;;;;;;5049438;28;20713;-77
2021/11/02 14:36:39;;;;;;;7.07;2.87;;;11.40;97.30;;;;;;5049510;28;20436;-77
2021/11/02 14:39:13;;;;;;;5.33;2.63;;;11.40;97.30;;;;;;5049482;28;20494;-76
2021/11/02 14:41:49;;;;;;;5.50;3.10;;;11.40;97.30;;;;;;5049626;28;20422;-75
2021/11/02 14:44:15;;;;;;;5.60;2.53;;;11.50;97.30;;;;;;5049176;28;20417;-77
2021/11/02 14:46:43;;;;;;;2.97;1.97;;;11.50;97.30;;;;;;5049306;28;20412;-79
2021/11/02 14:49:29;;;;;;;4.73;2.23;;;11.40;97.30;;;;;;5066360;28;20268;-77
2021/11/02 14:52:04;;;;;;;3.03;2.17;;;11.40;97.30;;;;;;5049256;28;20410;-79
2021/11/02 14:54:38;;;;;;;2.83;2.13;;;11.40;97.30;;;;;;5049459;28;20472;-77
2021/11/02 14:57:19;;;;;;;3.67;2.10;;;11.40;97.30;;;;;;5050580;28;20456;-77
2021/11/02 14:59:57;;;;;;;2.90;2.27;;;11.40;97.30;;;;;;5049256;28;20406;-77
2021/11/02 15:02:34;;;;;;;6.30;3.10;;;11.30;97.30;;;;;;5049689;28;20410;-77
2021/11/02 15:05:07;;;;;;;2.93;2.40;;;11.30;97.30;;;;;;5065926;28;20801;-78
2021/11/02 15:07:36;;;;;;;3.20;2.33;;;11.30;97.30;;;;;;5049269;28;20417;-77
2021/11/02 15:10:07;;;;;;;2.50;2.00;;;11.30;97.30;;;;;;5053831;28;20406;-77
2021/11/02 15:12:34;;;;;;;6.53;2.80;;;11.30;97.30;;;;;;5053567;28;21045;-77
2021/11/02 15:15:02;;;;;;;7.93;2.90;;;11.30;97.30;;;;;;5053882;28;20923;-77
2021/11/02 15:17:27;;;;;;;8.03;4.07;;;11.30;97.30;;;;;;5052951;28;20421;-77
2021/11/02 15:19:53;;;;;;;12.77;4.17;;;11.30;97.30;;;;;;5052848;28;20923;-77
2021/11/02 15:22:20;;;;;;;8.70;3.20;;;11.30;97.30;;;;;;5054026;28;20168;-77
2021/11/02 15:24:56;;;;;;;6.57;3.37;;;11.30;97.30;;;;;;5052309;28;20261;-77
2021/11/02 15:27:34;;;;;;;15.77;4.90;;;11.30;97.30;;;;;;5053132;28;20418;-78
2021/11/02 15:30:06;;;;;;;11.90;3.57;;;11.20;97.30;;;;;;5052585;28;20422;-77
2021/11/02 15:32:37;;;;;;;6.60;3.40;;;11.10;97.30;;;;;;5052401;28;20801;-78
2021/11/02 15:35:06;;;;;;;7.47;2.90;;;11.10;97.30;;;;;;5052059;28;20472;-77
2021/11/02 15:37:45;;;;;;;4.67;2.37;;;11.00;97.30;;;;;;5052718;28;20418;-77
2021/11/02 15:40:18;;;;;;;2.80;2.30;;;10.90;97.30;;;;;;5052818;28;20961;-77
2021/11/02 15:42:47;;;;;;;4.53;2.63;;;10.80;97.30;;;;;;5052189;28;20827;-77
2021/11/02 15:45:25;;;;;;;3.40;2.40;;;10.70;97.30;;;;;;5052368;28;20473;-77
2021/11/02 15:47:53;;;;;;;3.60;2.37;;;10.60;97.30;;;;;;5052848;28;20939;-77
2021/11/02 15:50:20;;;;;;;7.47;3.03;;;10.50;97.30;;;;;;5052565;28;20459;-77
2021/11/02 15:52:47;;;;;;;2.30;1.93;;;10.40;97.30;;;;;;5052396;28;20415;-77
2021/11/02 15:55:22;;;;;;;3.93;2.40;;;10.20;97.30;;;;;;5068996;28;20802;-77
2021/11/02 15:57:56;;;;;;;9.17;2.50;;;10.10;97.30;;;;;;5052227;28;20418;-78
2021/11/02 16:00:24;;;;;;;6.73;2.53;;;9.90;97.30;;;;;;5051821;28;20414;-76
2021/11/02 16:02:50;;;;;;;2.93;2.47;;;9.80;97.30;;;;;;5068686;28;20584;-77
2021/11/02 16:05:27;;;;;;;5.10;2.40;;;9.70;97.30;;;;;;5052983;28;20447;-79
2021/11/02 16:07:55;;;;;;;4.70;3.00;;;9.70;97.30;;;;;;5068528;28;20398;-78
2021/11/02 16:10:28;;;;;;;4.50;2.60;;;9.60;97.30;;;;;;5052479;28;20503;-76
2021/11/02 16:12:54;;;;;;;7.00;2.47;;;9.60;97.30;;;;;;5052347;28;20446;-75
2021/11/02 16:15:28;;;;;;;4.90;3.10;;;9.50;97.30;;;;;;5052224;28;20524;-76
2021/11/02 16:18:14;;;;;;;11.40;3.90;;;9.50;97.30;;;;;;5051900;28;20420;-76
2021/11/02 16:20:41;;;;;;;4.80;3.03;;;9.30;97.30;;;;;;5050464;28;20931;-75
2021/11/02 16:23:12;;;;;;;9.40;3.90;;;9.30;97.30;;;;;;5051471;28;20411;-76
2021/11/02 16:25:44;;;;;;;23.17;4.60;;;9.20;97.30;;;;;;5051325;28;20801;-76
2021/11/02 16:28:26;;;;;;;12.70;5.50;;;9.30;97.30;;;;;;5051881;28;20395;-75
2021/11/02 16:30:54;;;;;;;6.47;3.90;;;9.20;97.30;;;;;;5051539;28;20414;-76
2021/11/02 16:33:34;;;;;;;10.90;4.20;;;9.20;97.30;;;;;;5068215;28;20481;-76
2021/11/02 16:36:16;;;;;;;5.93;3.50;;;9.20;97.30;;;;;;5051348;28;20442;-76
2021/11/02 16:38:41;;;;;;;8.93;4.17;;;9.20;97.30;;;;;;5051411;28;20908;-76
2021/11/02 16:41:21;;;;;;;9.03;4.37;;;9.10;97.30;;;;;;5051137;28;20472;-75
2021/11/02 16:44:01;;;;;;;5.80;3.37;;;9.10;97.30;;;;;;5051259;28;20195;-76
2021/11/02 16:46:38;;;;;;;7.23;3.40;;;9.10;97.30;;;;;;5051428;28;20453;-76
2021/11/02 16:49:24;;;;;;;5.93;4.33;;;9.10;97.30;;;;;;5051353;28;20410;-75
2021/11/02 16:51:51;;;;;;;9.40;3.87;;;9.10;97.30;;;;;;5051253;28;20406;-75
2021/11/02 16:54:21;;;;;;;8.83;4.70;;;9.20;97.30;;;;;;5051319;28;20406;-75
2021/11/02 16:57:04;;;;;;;10.03;4.43;;;9.20;97.30;;;;;;5050779;28;20406;-75
2021/11/02 16:59:39;;;;;;;10.87;4.97;;;9.30;97.30;;;;;;5051175;28;20490;-76
2021/11/02 17:02:14;;;;;;;17.30;5.30;;;9.30;97.30;;;;;;5051246;28;20433;-78
2021/11/02 17:04:40;;;;;;;13.03;6.67;;;9.40;97.30;;;;;;5051105;28;20473;-78
2021/11/02 17:07:11;;;;;;;9.40;3.43;;;9.40;97.30;;;;;;5051414;28;20410;-78
2021/11/02 17:09:39;;;;;;;9.27;3.77;;;9.40;97.30;;;;;;5051097;28;20415;-78
2021/11/02 17:12:10;;;;;;;10.53;4.67;;;9.50;97.30;;;;;;5051793;28;20406;-77
2021/11/02 17:14:40;;;;;;;16.77;5.17;;;9.40;97.30;;;;;;5051380;28;20461;-77
2021/11/02 17:17:06;;;;;;;10.40;4.77;;;9.50;97.30;;;;;;5051312;28;20414;-77
2021/11/02 17:19:43;;;;;;;6.03;4.20;;;9.50;97.30;;;;;;5051308;28;20427;-77
2021/11/02 17:22:09;;;;;;;7.90;4.40;;;9.40;97.30;;;;;;5051857;28;20844;-78
2021/11/02 17:24:35;;;;;;;5.97;3.80;;;9.40;97.30;;;;;;5051336;28;20805;-78
2021/11/02 17:27:01;;;;;;;6.80;4.40;;;9.40;97.30;;;;;;5051162;28;20585;-78
2021/11/02 17:29:27;;;;;;;8.60;3.70;;;9.40;97.30;;;;;;5051486;28;20171;-78
2021/11/02 17:31:54;;;;;;;12.77;3.47;;;9.40;97.30;;;;;;5051454;28;20410;-78
2021/11/02 17:34:22;;;;;;;8.60;4.27;;;9.40;97.30;;;;;;5052727;28;20932;-77
2021/11/02 17:36:51;;;;;;;7.33;4.10;;;9.40;97.30;;;;;;5051129;28;20938;-77
2021/11/02 17:39:19;;;;;;;10.40;3.70;;;9.40;97.30;;;;;;5051006;28;20410;-78
2021/11/02 17:41:45;;;;;;;6.47;3.63;;;9.40;97.30;;;;;;5052428;28;20422;-77
2021/11/02 17:44:13;;;;;;;13.47;5.53;;;9.40;97.30;;;;;;5053318;28;20457;-78
2021/11/02 17:46:39;;;;;;;8.00;4.77;;;9.40;97.30;;;;;;5051691;28;20538;-78
2021/11/02 17:49:05;;;;;;;11.00;4.30;;;9.30;97.30;;;;;;5051051;28;20501;-78
2021/11/02 17:51:30;;;;;;;13.93;4.70;;;9.30;97.30;;;;;;5051090;28;20501;-77
2021/11/02 17:53:56;;;;;;;11.30;5.43;;;9.30;97.30;;;;;;5050390;28;20629;-77
2021/11/02 17:56:23;;;;;;;9.90;5.23;;;9.20;97.30;;;;;;5049794;28;20231;-78
2021/11/02 17:58:50;;;;;;;8.37;4.57;;;9.10;97.30;;;;;;5051126;28;20445;-77